sensor_id;sensor_type;location;lat;lon;timestamp;pressure;altitude;pressure_sealevel;temperature;humidity
59419;BME280;45224;50.904;6.038;2023-02-28T00:00:07;101091.59;;;-0.99;78.44
59419;BME280;45224;50.904;6.038;2023-02-28T00:01:40;101094.66;;;-0.91;78.36
59419;BME280;45224;50.904;6.038;2023-02-28T00:03:10;101093.47;;;-0.96;78.50
59419;BME280;45224;50.904;6.038;2023-02-28T00:04:41;101100.13;;;-0.98;79.05
59419;BME280;45224;50.904;6.038;2023-02-28T00:06:11;101098.44;;;-0.98;78.73
59419;BME280;45224;50.904;6.038;2023-02-28T00:07:42;101102.44;;;-1.01;79.05
59419;BME280;45224;50.904;6.038;2023-02-28T00:09:13;101093.75;;;-1.05;78.70
59419;BME280;45224;50.904;6.038;2023-02-28T00:10:43;101097.50;;;-1.12;79.19
59419;BME280;45224;50.904;6.038;2023-02-28T00:12:14;101085.13;;;-1.07;78.94
59419;BME280;45224;50.904;6.038;2023-02-28T00:13:46;101093.63;;;-1.06;78.73
59419;BME280;45224;50.904;6.038;2023-02-28T00:15:18;101093.66;;;-1.18;79.40
59419;BME280;45224;50.904;6.038;2023-02-28T00:16:48;101095.06;;;-1.10;78.83
59419;BME280;45224;50.904;6.038;2023-02-28T00:18:19;101097.25;;;-1.03;78.76
59419;BME280;45224;50.904;6.038;2023-02-28T00:19:50;101094.44;;;-0.94;77.94
59419;BME280;45224;50.904;6.038;2023-02-28T00:21:21;101091.22;;;-1.05;78.12
59419;BME280;45224;50.904;6.038;2023-02-28T00:22:52;101098.81;;;-1.05;78.60
59419;BME280;45224;50.904;6.038;2023-02-28T00:24:23;101100.13;;;-1.10;78.87
59419;BME280;45224;50.904;6.038;2023-02-28T00:25:54;101098.84;;;-1.17;79.28
59419;BME280;45224;50.904;6.038;2023-02-28T00:27:24;101096.41;;;-1.15;79.21
59419;BME280;45224;50.904;6.038;2023-02-28T00:28:55;101095.06;;;-1.10;78.92
59419;BME280;45224;50.904;6.038;2023-02-28T00:30:26;101099.16;;;-1.12;79.01
59419;BME280;45224;50.904;6.038;2023-02-28T00:31:57;101101.06;;;-1.21;79.43
59419;BME280;45224;50.904;6.038;2023-02-28T00:33:28;101094.25;;;-1.22;79.59
59419;BME280;45224;50.904;6.038;2023-02-28T00:34:59;101105.16;;;-1.23;79.68
59419;BME280;45224;50.904;6.038;2023-02-28T00:36:29;101096.22;;;-1.18;79.68
59419;BME280;45224;50.904;6.038;2023-02-28T00:38:00;101096.78;;;-1.22;79.03
59419;BME280;45224;50.904;6.038;2023-02-28T00:39:33;101099.31;;;-1.22;79.44
59419;BME280;45224;50.904;6.038;2023-02-28T00:41:05;101100.25;;;-1.34;80.00
59419;BME280;45224;50.904;6.038;2023-02-28T00:42:36;101102.00;;;-1.33;79.96
59419;BME280;45224;50.904;6.038;2023-02-28T00:44:06;101103.00;;;-1.31;80.04
59419;BME280;45224;50.904;6.038;2023-02-28T00:45:37;101093.19;;;-1.38;80.14
59419;BME280;45224;50.904;6.038;2023-02-28T00:47:08;101101.00;;;-1.35;79.94
59419;BME280;45224;50.904;6.038;2023-02-28T00:48:38;101097.81;;;-1.32;80.01
59419;BME280;45224;50.904;6.038;2023-02-28T00:50:09;101100.19;;;-1.22;79.54
59419;BME280;45224;50.904;6.038;2023-02-28T00:51:40;101094.78;;;-1.15;78.67
59419;BME280;45224;50.904;6.038;2023-02-28T00:53:11;101101.06;;;-1.21;78.86
59419;BME280;45224;50.904;6.038;2023-02-28T00:54:41;101096.00;;;-1.21;78.69
59419;BME280;45224;50.904;6.038;2023-02-28T00:56:12;101098.41;;;-1.23;79.03
59419;BME280;45224;50.904;6.038;2023-02-28T00:57:43;101098.91;;;-1.29;79.05
59419;BME280;45224;50.904;6.038;2023-02-28T00:59:15;101101.78;;;-1.36;79.14
59419;BME280;45224;50.904;6.038;2023-02-28T01:00:46;101098.25;;;-1.26;79.16
59419;BME280;45224;50.904;6.038;2023-02-28T01:02:20;101106.31;;;-1.32;79.01
59419;BME280;45224;50.904;6.038;2023-02-28T01:03:51;101106.09;;;-1.35;78.90
59419;BME280;45224;50.904;6.038;2023-02-28T01:05:21;101101.59;;;-1.39;78.91
59419;BME280;45224;50.904;6.038;2023-02-28T01:06:52;101110.28;;;-1.35;79.17
59419;BME280;45224;50.904;6.038;2023-02-28T01:08:23;101113.47;;;-1.38;79.13
59419;BME280;45224;50.904;6.038;2023-02-28T01:09:54;101106.31;;;-1.32;78.64
59419;BME280;45224;50.904;6.038;2023-02-28T01:11:25;101105.13;;;-1.37;79.03
59419;BME280;45224;50.904;6.038;2023-02-28T01:12:57;101101.16;;;-1.45;79.28
59419;BME280;45224;50.904;6.038;2023-02-28T01:14:27;101107.38;;;-1.53;79.71
59419;BME280;45224;50.904;6.038;2023-02-28T01:15:58;101113.63;;;-1.48;79.62
59419;BME280;45224;50.904;6.038;2023-02-28T01:17:29;101109.47;;;-1.59;79.75
59419;BME280;45224;50.904;6.038;2023-02-28T01:18:59;101107.91;;;-1.57;80.32
59419;BME280;45224;50.904;6.038;2023-02-28T01:20:30;101107.91;;;-1.57;80.03
59419;BME280;45224;50.904;6.038;2023-02-28T01:22:05;101115.53;;;-1.57;80.55
59419;BME280;45224;50.904;6.038;2023-02-28T01:23:35;101116.50;;;-1.55;79.99
59419;BME280;45224;50.904;6.038;2023-02-28T01:25:07;101118.81;;;-1.58;79.96
59419;BME280;45224;50.904;6.038;2023-02-28T01:26:38;101110.00;;;-1.63;79.77
59419;BME280;45224;50.904;6.038;2023-02-28T01:28:11;101114.97;;;-1.53;79.30
59419;BME280;45224;50.904;6.038;2023-02-28T01:29:41;101120.25;;;-1.50;78.88
59419;BME280;45224;50.904;6.038;2023-02-28T01:31:13;101112.44;;;-1.53;79.34
59419;BME280;45224;50.904;6.038;2023-02-28T01:32:44;101116.94;;;-1.49;78.87
59419;BME280;45224;50.904;6.038;2023-02-28T01:34:14;101107.75;;;-1.47;78.32
59419;BME280;45224;50.904;6.038;2023-02-28T01:35:45;101116.06;;;-1.50;78.67
59419;BME280;45224;50.904;6.038;2023-02-28T01:37:16;101111.00;;;-1.50;78.26
59419;BME280;45224;50.904;6.038;2023-02-28T01:38:48;101116.16;;;-1.48;78.43
59419;BME280;45224;50.904;6.038;2023-02-28T01:40:19;101115.47;;;-1.45;78.40
59419;BME280;45224;50.904;6.038;2023-02-28T01:41:50;101107.88;;;-1.45;78.39
59419;BME280;45224;50.904;6.038;2023-02-28T01:45:25;101105.22;;;-1.47;78.72
59419;BME280;45224;50.904;6.038;2023-02-28T01:46:56;101096.09;;;-1.45;78.66
59419;BME280;45224;50.904;6.038;2023-02-28T01:48:37;101104.78;;;-1.41;77.96
59419;BME280;45224;50.904;6.038;2023-02-28T01:50:13;101101.38;;;-1.42;78.15
59419;BME280;45224;50.904;6.038;2023-02-28T01:51:50;101100.91;;;-1.36;77.86
59419;BME280;45224;50.904;6.038;2023-02-28T01:53:29;101097.13;;;-1.30;77.73
59419;BME280;45224;50.904;6.038;2023-02-28T01:55:04;101106.63;;;-1.27;77.16
59419;BME280;45224;50.904;6.038;2023-02-28T01:56:37;101095.78;;;-1.24;77.21
59419;BME280;45224;50.904;6.038;2023-02-28T01:58:09;101100.03;;;-1.37;77.13
59419;BME280;45224;50.904;6.038;2023-02-28T01:59:43;101090.75;;;-1.36;77.17
59419;BME280;45224;50.904;6.038;2023-02-28T02:01:16;101093.50;;;-1.33;77.63
59419;BME280;45224;50.904;6.038;2023-02-28T02:02:54;101094.53;;;-1.43;77.57
59419;BME280;45224;50.904;6.038;2023-02-28T02:04:30;101082.00;;;-1.53;78.04
59419;BME280;45224;50.904;6.038;2023-02-28T02:06:03;101083.97;;;-1.49;78.14
59419;BME280;45224;50.904;6.038;2023-02-28T02:07:37;101089.47;;;-1.43;78.01
59419;BME280;45224;50.904;6.038;2023-02-28T02:09:08;101090.00;;;-1.47;78.09
59419;BME280;45224;50.904;6.038;2023-02-28T02:12:25;101083.63;;;-1.42;77.78
59419;BME280;45224;50.904;6.038;2023-02-28T02:14:12;101086.50;;;-1.49;78.03
59419;BME280;45224;50.904;6.038;2023-02-28T02:17:44;101082.06;;;-1.40;77.60
59419;BME280;45224;50.904;6.038;2023-02-28T02:21:35;101083.19;;;-1.48;77.44
59419;BME280;45224;50.904;6.038;2023-02-28T02:25:26;101082.63;;;-1.44;77.13
59419;BME280;45224;50.904;6.038;2023-02-28T02:27:11;101080.19;;;-1.42;77.23
59419;BME280;45224;50.904;6.038;2023-02-28T02:37:50;101067.38;;;-1.32;76.90
59419;BME280;45224;50.904;6.038;2023-02-28T02:40:15;101077.31;;;-1.35;77.01
59419;BME280;45224;50.904;6.038;2023-02-28T02:41:39;101068.63;;;-1.39;76.98
59419;BME280;45224;50.904;6.038;2023-02-28T02:43:18;101072.13;;;-1.37;76.91
59419;BME280;45224;50.904;6.038;2023-02-28T02:45:01;101076.41;;;-1.36;76.76
59419;BME280;45224;50.904;6.038;2023-02-28T02:46:35;101065.97;;;-1.40;76.78
59419;BME280;45224;50.904;6.038;2023-02-28T02:48:11;101073.22;;;-1.33;76.56
59419;BME280;45224;50.904;6.038;2023-02-28T02:49:49;101070.66;;;-1.33;76.63
59419;BME280;45224;50.904;6.038;2023-02-28T02:51:22;101070.78;;;-1.32;76.42
59419;BME280;45224;50.904;6.038;2023-02-28T02:52:57;101070.34;;;-1.38;76.78
59419;BME280;45224;50.904;6.038;2023-02-28T02:54:35;101065.91;;;-1.29;76.38
59419;BME280;45224;50.904;6.038;2023-02-28T02:56:07;101071.50;;;-1.21;76.19
59419;BME280;45224;50.904;6.038;2023-02-28T02:57:52;101069.53;;;-1.25;76.02
59419;BME280;45224;50.904;6.038;2023-02-28T02:59:25;101060.22;;;-1.13;75.74
59419;BME280;45224;50.904;6.038;2023-02-28T03:01:01;101065.22;;;-1.01;75.47
59419;BME280;45224;50.904;6.038;2023-02-28T03:02:36;101056.56;;;-0.91;74.57
59419;BME280;45224;50.904;6.038;2023-02-28T03:04:12;101058.84;;;-0.82;73.97
59419;BME280;45224;50.904;6.038;2023-02-28T03:05:48;101060.03;;;-0.77;73.99
59419;BME280;45224;50.904;6.038;2023-02-28T03:07:19;101053.59;;;-0.72;73.24
59419;BME280;45224;50.904;6.038;2023-02-28T03:08:52;101054.66;;;-0.68;73.01
59419;BME280;45224;50.904;6.038;2023-02-28T03:10:35;101052.84;;;-0.58;72.90
59419;BME280;45224;50.904;6.038;2023-02-28T03:12:09;101047.75;;;-0.58;72.64
59419;BME280;45224;50.904;6.038;2023-02-28T03:14:10;101059.53;;;-0.71;73.39
59419;BME280;45224;50.904;6.038;2023-02-28T03:19:37;101058.50;;;-1.25;75.34
59419;BME280;45224;50.904;6.038;2023-02-28T03:23:23;101057.13;;;-1.45;76.19
59419;BME280;45224;50.904;6.038;2023-02-28T03:26:29;101065.75;;;-1.18;75.88
59419;BME280;45224;50.904;6.038;2023-02-28T03:28:08;101057.00;;;-1.10;75.21
59419;BME280;45224;50.904;6.038;2023-02-28T03:29:46;101079.25;;;-1.19;75.79
59419;BME280;45224;50.904;6.038;2023-02-28T03:31:30;101068.88;;;-1.22;76.38
59419;BME280;45224;50.904;6.038;2023-02-28T03:33:13;101070.47;;;-1.36;76.46
59419;BME280;45224;50.904;6.038;2023-02-28T03:34:49;101068.09;;;-1.47;77.41
59419;BME280;45224;50.904;6.038;2023-02-28T03:36:25;101065.31;;;-1.24;76.34
59419;BME280;45224;50.904;6.038;2023-02-28T03:38:13;101071.84;;;-1.53;77.55
59419;BME280;45224;50.904;6.038;2023-02-28T03:39:52;101060.63;;;-1.69;78.03
59419;BME280;45224;50.904;6.038;2023-02-28T03:41:31;101062.63;;;-1.76;78.50
59419;BME280;45224;50.904;6.038;2023-02-28T03:43:09;101061.75;;;-1.77;79.39
59419;BME280;45224;50.904;6.038;2023-02-28T03:44:45;101073.22;;;-1.70;79.17
59419;BME280;45224;50.904;6.038;2023-02-28T03:46:22;101068.59;;;-1.76;79.19
59419;BME280;45224;50.904;6.038;2023-02-28T03:47:55;101076.53;;;-1.83;79.88
59419;BME280;45224;50.904;6.038;2023-02-28T03:49:32;101067.06;;;-1.97;81.08
59419;BME280;45224;50.904;6.038;2023-02-28T03:51:08;101062.56;;;-2.02;81.51
59419;BME280;45224;50.904;6.038;2023-02-28T03:52:48;101068.63;;;-1.99;81.71
59419;BME280;45224;50.904;6.038;2023-02-28T03:54:25;101069.06;;;-1.93;82.09
59419;BME280;45224;50.904;6.038;2023-02-28T03:56:18;101074.47;;;-2.00;82.27
59419;BME280;45224;50.904;6.038;2023-02-28T03:58:01;101070.63;;;-1.95;82.60
59419;BME280;45224;50.904;6.038;2023-02-28T03:59:38;101072.38;;;-1.94;82.13
59419;BME280;45224;50.904;6.038;2023-02-28T04:01:23;101067.97;;;-2.09;83.59
59419;BME280;45224;50.904;6.038;2023-02-28T04:02:56;101074.06;;;-2.07;83.99
59419;BME280;45224;50.904;6.038;2023-02-28T04:04:26;101057.19;;;-2.18;84.59
59419;BME280;45224;50.904;6.038;2023-02-28T04:05:58;101069.31;;;-2.14;84.37
59419;BME280;45224;50.904;6.038;2023-02-28T04:07:31;101069.53;;;-2.11;84.92
59419;BME280;45224;50.904;6.038;2023-02-28T04:09:03;101073.03;;;-2.09;84.66
59419;BME280;45224;50.904;6.038;2023-02-28T04:10:34;101071.69;;;-2.04;84.73
59419;BME280;45224;50.904;6.038;2023-02-28T04:12:05;101064.00;;;-2.05;84.78
59419;BME280;45224;50.904;6.038;2023-02-28T04:13:36;101054.53;;;-2.08;83.96
59419;BME280;45224;50.904;6.038;2023-02-28T04:15:07;101060.66;;;-1.92;84.18
59419;BME280;45224;50.904;6.038;2023-02-28T04:16:40;101066.81;;;-1.77;83.18
59419;BME280;45224;50.904;6.038;2023-02-28T04:18:11;101056.13;;;-1.73;82.62
59419;BME280;45224;50.904;6.038;2023-02-28T04:19:41;101059.28;;;-1.63;81.81
59419;BME280;45224;50.904;6.038;2023-02-28T04:21:12;101062.38;;;-1.56;81.54
59419;BME280;45224;50.904;6.038;2023-02-28T04:22:43;101065.22;;;-1.51;80.53
59419;BME280;45224;50.904;6.038;2023-02-28T04:24:32;101059.66;;;-1.45;80.40
59419;BME280;45224;50.904;6.038;2023-02-28T04:26:02;101065.06;;;-1.41;80.22
59419;BME280;45224;50.904;6.038;2023-02-28T04:27:34;101059.66;;;-1.34;79.66
59419;BME280;45224;50.904;6.038;2023-02-28T04:29:06;101068.75;;;-1.49;80.16
59419;BME280;45224;50.904;6.038;2023-02-28T04:30:37;101064.13;;;-1.55;81.36
59419;BME280;45224;50.904;6.038;2023-02-28T04:32:08;101069.44;;;-1.63;81.58
59419;BME280;45224;50.904;6.038;2023-02-28T04:33:39;101072.34;;;-1.71;81.77
59419;BME280;45224;50.904;6.038;2023-02-28T04:35:09;101071.69;;;-1.80;83.13
59419;BME280;45224;50.904;6.038;2023-02-28T04:36:40;101077.44;;;-1.94;83.25
59419;BME280;45224;50.904;6.038;2023-02-28T04:38:10;101076.91;;;-2.14;84.99
59419;BME280;45224;50.904;6.038;2023-02-28T04:39:41;101079.09;;;-1.95;84.33
59419;BME280;45224;50.904;6.038;2023-02-28T04:41:12;101078.53;;;-1.91;83.71
59419;BME280;45224;50.904;6.038;2023-02-28T04:42:43;101077.66;;;-1.91;83.81
59419;BME280;45224;50.904;6.038;2023-02-28T04:44:14;101081.66;;;-2.07;85.41
59419;BME280;45224;50.904;6.038;2023-02-28T04:45:45;101082.06;;;-2.12;86.00
59419;BME280;45224;50.904;6.038;2023-02-28T04:47:16;101079.09;;;-2.18;86.18
59419;BME280;45224;50.904;6.038;2023-02-28T04:48:46;101077.91;;;-2.35;87.36
59419;BME280;45224;50.904;6.038;2023-02-28T04:50:17;101075.25;;;-2.25;86.97
59419;BME280;45224;50.904;6.038;2023-02-28T04:51:48;101084.28;;;-2.17;86.20
59419;BME280;45224;50.904;6.038;2023-02-28T04:53:20;101091.22;;;-2.03;86.17
59419;BME280;45224;50.904;6.038;2023-02-28T04:54:51;101089.16;;;-2.08;85.64
59419;BME280;45224;50.904;6.038;2023-02-28T04:56:22;101083.41;;;-2.06;86.22
59419;BME280;45224;50.904;6.038;2023-02-28T04:57:53;101085.50;;;-2.24;87.17
59419;BME280;45224;50.904;6.038;2023-02-28T04:59:23;101087.78;;;-2.15;87.21
59419;BME280;45224;50.904;6.038;2023-02-28T05:01:01;101089.81;;;-2.23;88.03
59419;BME280;45224;50.904;6.038;2023-02-28T05:02:34;101093.09;;;-2.24;87.72
59419;BME280;45224;50.904;6.038;2023-02-28T05:04:05;101083.50;;;-2.28;88.67
59419;BME280;45224;50.904;6.038;2023-02-28T05:05:36;101092.09;;;-2.38;88.82
59419;BME280;45224;50.904;6.038;2023-02-28T05:07:06;101094.84;;;-2.46;89.36
59419;BME280;45224;50.904;6.038;2023-02-28T05:08:37;101094.19;;;-2.44;89.42
59419;BME280;45224;50.904;6.038;2023-02-28T05:10:08;101089.88;;;-2.45;89.37
59419;BME280;45224;50.904;6.038;2023-02-28T05:11:39;101091.78;;;-2.42;89.68
59419;BME280;45224;50.904;6.038;2023-02-28T05:13:12;101080.09;;;-2.52;89.99
59419;BME280;45224;50.904;6.038;2023-02-28T05:14:42;101086.69;;;-2.54;89.85
59419;BME280;45224;50.904;6.038;2023-02-28T05:16:14;101083.91;;;-2.57;89.69
59419;BME280;45224;50.904;6.038;2023-02-28T05:17:45;101091.97;;;-2.63;90.22
59419;BME280;45224;50.904;6.038;2023-02-28T05:19:15;101077.19;;;-2.68;90.54
59419;BME280;45224;50.904;6.038;2023-02-28T05:20:46;101083.34;;;-2.77;91.13
59419;BME280;45224;50.904;6.038;2023-02-28T05:22:17;101082.69;;;-2.62;91.33
59419;BME280;45224;50.904;6.038;2023-02-28T05:23:47;101084.91;;;-2.67;91.42
59419;BME280;45224;50.904;6.038;2023-02-28T05:25:19;101085.44;;;-2.71;90.74
59419;BME280;45224;50.904;6.038;2023-02-28T05:26:52;101088.63;;;-2.73;91.65
59419;BME280;45224;50.904;6.038;2023-02-28T05:28:23;101081.59;;;-2.78;91.73
59419;BME280;45224;50.904;6.038;2023-02-28T05:29:53;101083.66;;;-2.84;92.31
59419;BME280;45224;50.904;6.038;2023-02-28T05:31:24;101078.59;;;-2.84;91.93
59419;BME280;45224;50.904;6.038;2023-02-28T05:32:55;101084.19;;;-2.88;92.68
59419;BME280;45224;50.904;6.038;2023-02-28T05:34:25;101080.66;;;-2.90;92.63
59419;BME280;45224;50.904;6.038;2023-02-28T05:35:56;101084.19;;;-2.88;93.00
59419;BME280;45224;50.904;6.038;2023-02-28T05:37:26;101089.06;;;-2.79;92.68
59419;BME280;45224;50.904;6.038;2023-02-28T05:38:57;101084.41;;;-2.85;91.79
59419;BME280;45224;50.904;6.038;2023-02-28T05:40:27;101090.34;;;-2.84;91.79
59419;BME280;45224;50.904;6.038;2023-02-28T05:41:58;101088.50;;;-2.87;92.89
59419;BME280;45224;50.904;6.038;2023-02-28T05:43:28;101088.38;;;-2.88;92.41
59419;BME280;45224;50.904;6.038;2023-02-28T05:44:59;101092.56;;;-2.89;92.33
59419;BME280;45224;50.904;6.038;2023-02-28T05:46:29;101095.66;;;-2.81;91.64
59419;BME280;45224;50.904;6.038;2023-02-28T05:48:00;101091.03;;;-2.87;92.36
59419;BME280;45224;50.904;6.038;2023-02-28T05:49:30;101096.72;;;-2.89;92.38
59419;BME280;45224;50.904;6.038;2023-02-28T05:51:01;101089.47;;;-2.97;92.47
59419;BME280;45224;50.904;6.038;2023-02-28T05:52:32;101081.66;;;-2.88;91.91
59419;BME280;45224;50.904;6.038;2023-02-28T05:54:03;101087.28;;;-2.92;91.77
59419;BME280;45224;50.904;6.038;2023-02-28T05:55:34;101089.25;;;-2.88;91.74
59419;BME280;45224;50.904;6.038;2023-02-28T05:57:06;101087.78;;;-2.96;92.47
59419;BME280;45224;50.904;6.038;2023-02-28T05:58:36;101091.03;;;-2.87;91.90
59419;BME280;45224;50.904;6.038;2023-02-28T06:00:07;101090.78;;;-2.90;91.27
59419;BME280;45224;50.904;6.038;2023-02-28T06:01:44;101088.38;;;-2.88;91.54
59419;BME280;45224;50.904;6.038;2023-02-28T06:03:18;101098.53;;;-2.77;91.69
59419;BME280;45224;50.904;6.038;2023-02-28T06:04:48;101089.94;;;-2.79;90.68
59419;BME280;45224;50.904;6.038;2023-02-28T06:06:19;101085.97;;;-2.87;90.98
59419;BME280;45224;50.904;6.038;2023-02-28T06:07:49;101095.16;;;-2.99;91.97
59419;BME280;45224;50.904;6.038;2023-02-28T06:09:20;101090.31;;;-2.96;92.04
59419;BME280;45224;50.904;6.038;2023-02-28T06:10:50;101098.88;;;-3.06;92.14
59419;BME280;45224;50.904;6.038;2023-02-28T06:12:21;101090.41;;;-3.06;92.03
59419;BME280;45224;50.904;6.038;2023-02-28T06:13:53;101094.63;;;-2.95;91.99
59419;BME280;45224;50.904;6.038;2023-02-28T06:15:24;101097.63;;;-2.89;91.64
59419;BME280;45224;50.904;6.038;2023-02-28T06:16:54;101099.88;;;-3.04;91.85
59419;BME280;45224;50.904;6.038;2023-02-28T06:18:25;101094.06;;;-2.91;91.40
59419;BME280;45224;50.904;6.038;2023-02-28T06:19:55;101097.41;;;-2.92;90.57
59419;BME280;45224;50.904;6.038;2023-02-28T06:21:26;101098.16;;;-2.93;90.90
59419;BME280;45224;50.904;6.038;2023-02-28T06:23:00;101098.16;;;-2.93;91.05
59419;BME280;45224;50.904;6.038;2023-02-28T06:24:30;101100.78;;;-2.91;90.66
59419;BME280;45224;50.904;6.038;2023-02-28T06:26:01;101105.00;;;-2.80;89.86
59419;BME280;45224;50.904;6.038;2023-02-28T06:27:33;101105.50;;;-2.96;90.16
59419;BME280;45224;50.904;6.038;2023-02-28T06:29:04;101105.50;;;-2.96;90.33
59419;BME280;45224;50.904;6.038;2023-02-28T06:30:34;101108.78;;;-2.97;90.65
59419;BME280;45224;50.904;6.038;2023-02-28T06:32:05;101105.97;;;-2.90;89.93
59419;BME280;45224;50.904;6.038;2023-02-28T06:33:37;101107.69;;;-3.01;89.92
59419;BME280;45224;50.904;6.038;2023-02-28T06:35:08;101112.13;;;-2.98;90.59
59419;BME280;45224;50.904;6.038;2023-02-28T06:36:40;101112.16;;;-3.08;90.21
59419;BME280;45224;50.904;6.038;2023-02-28T06:38:10;101113.53;;;-3.02;90.78
59419;BME280;45224;50.904;6.038;2023-02-28T06:39:41;101114.56;;;-2.88;90.17
59419;BME280;45224;50.904;6.038;2023-02-28T06:41:11;101122.84;;;-2.79;89.92
59419;BME280;45224;50.904;6.038;2023-02-28T06:42:42;101109.72;;;-2.85;88.99
59419;BME280;45224;50.904;6.038;2023-02-28T06:44:17;101114.31;;;-2.91;88.84
59419;BME280;45224;50.904;6.038;2023-02-28T06:45:47;101113.22;;;-2.95;89.42
59419;BME280;45224;50.904;6.038;2023-02-28T06:47:18;101124.22;;;-2.94;89.82
59419;BME280;45224;50.904;6.038;2023-02-28T06:48:49;101120.47;;;-2.99;89.04
59419;BME280;45224;50.904;6.038;2023-02-28T06:50:20;101127.78;;;-2.92;89.89
59419;BME280;45224;50.904;6.038;2023-02-28T06:51:50;101129.00;;;-2.87;89.01
59419;BME280;45224;50.904;6.038;2023-02-28T06:53:21;101135.47;;;-2.90;89.51
59419;BME280;45224;50.904;6.038;2023-02-28T06:54:51;101133.47;;;-2.95;89.19
59419;BME280;45224;50.904;6.038;2023-02-28T06:56:29;101141.81;;;-2.96;89.27
59419;BME280;45224;50.904;6.038;2023-02-28T06:58:00;101127.19;;;-3.00;89.47
59419;BME280;45224;50.904;6.038;2023-02-28T06:59:31;101137.81;;;-2.82;88.70
59419;BME280;45224;50.904;6.038;2023-02-28T07:01:02;101140.53;;;-2.90;89.00
59419;BME280;45224;50.904;6.038;2023-02-28T07:02:34;101136.81;;;-2.84;88.99
59419;BME280;45224;50.904;6.038;2023-02-28T07:04:05;101141.25;;;-2.69;88.55
59419;BME280;45224;50.904;6.038;2023-02-28T07:05:37;101133.47;;;-2.61;87.83
59419;BME280;45224;50.904;6.038;2023-02-28T07:07:08;101147.03;;;-2.48;87.81
59419;BME280;45224;50.904;6.038;2023-02-28T07:08:38;101147.41;;;-2.32;86.90
59419;BME280;45224;50.904;6.038;2023-02-28T07:10:11;101142.44;;;-2.30;85.43
59419;BME280;45224;50.904;6.038;2023-02-28T07:11:42;101148.94;;;-2.22;85.03
59419;BME280;45224;50.904;6.038;2023-02-28T07:13:13;101143.44;;;-2.16;85.13
59419;BME280;45224;50.904;6.038;2023-02-28T07:14:43;101140.13;;;-2.15;84.62
59419;BME280;45224;50.904;6.038;2023-02-28T07:16:14;101146.97;;;-2.03;83.90
59419;BME280;45224;50.904;6.038;2023-02-28T07:17:45;101150.72;;;-2.09;83.94
59419;BME280;45224;50.904;6.038;2023-02-28T07:19:15;101148.19;;;-1.97;83.87
59419;BME280;45224;50.904;6.038;2023-02-28T07:20:46;101138.94;;;-1.85;83.05
59419;BME280;45224;50.904;6.038;2023-02-28T07:22:16;101146.19;;;-1.78;81.68
59419;BME280;45224;50.904;6.038;2023-02-28T07:23:47;101147.75;;;-1.80;81.93
59419;BME280;45224;50.904;6.038;2023-02-28T07:25:17;101150.38;;;-1.67;81.45
59419;BME280;45224;50.904;6.038;2023-02-28T07:26:48;101147.72;;;-1.56;80.27
59419;BME280;45224;50.904;6.038;2023-02-28T07:28:18;101149.16;;;-1.72;80.22
59419;BME280;45224;50.904;6.038;2023-02-28T07:29:49;101145.09;;;-1.58;80.60
59419;BME280;45224;50.904;6.038;2023-02-28T07:31:20;101154.97;;;-1.49;79.13
59419;BME280;45224;50.904;6.038;2023-02-28T07:32:51;101152.94;;;-1.30;79.42
59419;BME280;45224;50.904;6.038;2023-02-28T07:34:22;101149.06;;;-1.24;78.30
59419;BME280;45224;50.904;6.038;2023-02-28T07:35:59;101151.53;;;-1.38;77.80
59419;BME280;45224;50.904;6.038;2023-02-28T07:37:29;101148.78;;;-1.41;78.49
59419;BME280;45224;50.904;6.038;2023-02-28T07:39:06;101154.94;;;-1.37;78.63
59419;BME280;45224;50.904;6.038;2023-02-28T07:40:39;101147.38;;;-1.12;78.07
59419;BME280;45224;50.904;6.038;2023-02-28T07:42:10;101150.19;;;-0.96;77.81
59419;BME280;45224;50.904;6.038;2023-02-28T07:43:43;101157.25;;;-0.92;77.13
59419;BME280;45224;50.904;6.038;2023-02-28T07:45:14;101155.25;;;-0.84;76.71
59419;BME280;45224;50.904;6.038;2023-02-28T07:46:45;101150.09;;;-0.72;76.00
59419;BME280;45224;50.904;6.038;2023-02-28T07:48:15;101144.91;;;-0.99;76.26
59419;BME280;45224;50.904;6.038;2023-02-28T07:49:46;101153.81;;;-0.67;75.73
59419;BME280;45224;50.904;6.038;2023-02-28T07:51:16;101147.06;;;-0.41;75.25
59419;BME280;45224;50.904;6.038;2023-02-28T07:52:47;101142.09;;;-0.26;73.64
59419;BME280;45224;50.904;6.038;2023-02-28T07:54:18;101138.25;;;-0.46;73.91
59419;BME280;45224;50.904;6.038;2023-02-28T07:55:48;101138.28;;;-0.20;73.06
59419;BME280;45224;50.904;6.038;2023-02-28T07:57:19;101152.56;;;-0.22;72.42
59419;BME280;45224;50.904;6.038;2023-02-28T07:58:49;101144.94;;;-0.22;72.06
59419;BME280;45224;50.904;6.038;2023-02-28T08:00:20;101143.69;;;-0.02;72.22
59419;BME280;45224;50.904;6.038;2023-02-28T08:01:51;101144.06;;;0.05;70.28
59419;BME280;45224;50.904;6.038;2023-02-28T08:03:23;101143.09;;;0.03;70.46
59419;BME280;45224;50.904;6.038;2023-02-28T08:04:54;101143.59;;;0.24;70.03
59419;BME280;45224;50.904;6.038;2023-02-28T08:06:25;101143.19;;;0.17;69.49
59419;BME280;45224;50.904;6.038;2023-02-28T08:07:56;101143.28;;;0.46;69.91
59419;BME280;45224;50.904;6.038;2023-02-28T08:09:27;101148.22;;;0.58;68.47
59419;BME280;45224;50.904;6.038;2023-02-28T08:10:59;101146.09;;;0.50;68.12
59419;BME280;45224;50.904;6.038;2023-02-28T08:12:30;101157.16;;;0.93;67.31
59419;BME280;45224;50.904;6.038;2023-02-28T08:14:00;101146.59;;;0.86;66.50
59419;BME280;45224;50.904;6.038;2023-02-28T08:15:31;101160.75;;;0.68;64.62
59419;BME280;45224;50.904;6.038;2023-02-28T08:17:02;101151.94;;;1.19;64.21
59419;BME280;45224;50.904;6.038;2023-02-28T08:18:32;101137.22;;;1.28;64.42
59419;BME280;45224;50.904;6.038;2023-02-28T08:20:03;101159.41;;;1.59;63.65
59419;BME280;45224;50.904;6.038;2023-02-28T08:21:34;101158.78;;;1.93;61.76
59419;BME280;45224;50.904;6.038;2023-02-28T08:23:05;101158.84;;;2.10;60.42
59419;BME280;45224;50.904;6.038;2023-02-28T08:24:35;101157.66;;;1.88;60.04
59419;BME280;45224;50.904;6.038;2023-02-28T08:26:06;101152.88;;;2.09;60.08
59419;BME280;45224;50.904;6.038;2023-02-28T08:27:36;101156.00;;;2.35;59.03
59419;BME280;45224;50.904;6.038;2023-02-28T08:29:07;101151.38;;;2.28;59.42
59419;BME280;45224;50.904;6.038;2023-02-28T08:30:37;101158.25;;;2.93;58.04